Check out our new PWSWeather beta!
PWSweather.com
Personal Weather Stations
Station Observations
KFLSTJOH36
Aberdeen Highland Point, Saint Johns, FL 32259

Aberdeen Highland PointSaint Johns, FL 32259

Lat: 30.082981, Lon: -81.59522

Elevation: 60

Station Type: Acurite 5-in-1 Weather Sensor

High Low Average
Temperature 73.9°F23.3°F 66.4°F19.1°F 70.5°F21.4°F
Dew Point 69.8°F21.0°F 62.0°F16.7°F 65.3°F18.5°F
Winds 14.0 mph -22.5 mph - Calm Calm 1.8 mph 2.9 mph
Wind Gusts -- -- --
Humidity 90% 76% 84%
Pressure 30.07 in1018.30 in 29.96 in1014.60 in -
Precipitation 5.70 in144.80 in - -
Hour Temp Dew Point Humidity Winds Wind Gusts Pressure Precip Precip Rate Daily Precip Total
12:00 AM 70.3°F21.3°C 62.8°F17.1°C 77% 4.0 mph SSW6.4 kmh SSW -- 30.05 in1017.6 mb 0.00 in0.0 mm 0.00 in0.0 mm 0.00 in0.0 mm
12:05 AM 69.8°F21.0°C 62.6°F17.0°C 78% 6.0 mph ENE9.7 kmh ENE -- 30.05 in1017.6 mb 0.00 in0.0 mm 0.00 in0.0 mm 0.00 in0.0 mm
12:10 AM 69.6°F20.9°C 62.8°F17.1°C 79% 7.0 mph ENE11.3 kmh ENE -- 30.04 in1017.3 mb 0.00 in0.0 mm 0.00 in0.0 mm 0.00 in0.0 mm
12:15 AM 69.6°F20.9°C 62.8°F17.1°C 79% 3.0 mph 4.8 kmh -- 30.04 in1017.3 mb 0.00 in0.0 mm 0.00 in0.0 mm 0.00 in0.0 mm
12:20 AM 69.4°F20.8°C 62.6°F17.0°C 79% 2.0 mph E3.2 kmh E -- 30.03 in1016.9 mb 0.00 in0.0 mm 0.00 in0.0 mm 0.00 in0.0 mm
12:25 AM 69.4°F20.8°C 62.6°F17.0°C 79% 5.0 mph NE8.0 kmh NE -- 30.03 in1016.9 mb 0.00 in0.0 mm 0.00 in0.0 mm 0.00 in0.0 mm
12:30 AM 68.9°F20.5°C 62.4°F16.9°C 80% Calm Calm -- 30.03 in1016.9 mb 0.00 in0.0 mm 0.00 in0.0 mm 0.00 in0.0 mm
12:35 AM 68.9°F20.5°C 62.4°F16.9°C 80% 3.0 mph W4.8 kmh W -- 30.03 in1016.9 mb 0.00 in0.0 mm 0.00 in0.0 mm 0.00 in0.0 mm
12:40 AM 69.1°F20.6°C 62.6°F17.0°C 80% 2.0 mph S3.2 kmh S -- 30.03 in1016.9 mb 0.00 in0.0 mm 0.00 in0.0 mm 0.00 in0.0 mm
12:45 AM 69.1°F20.6°C 62.6°F17.0°C 80% 2.0 mph ESE3.2 kmh ESE -- 30.03 in1016.9 mb 0.00 in0.0 mm 0.00 in0.0 mm 0.00 in0.0 mm
12:50 AM 68.9°F20.5°C 62.8°F17.1°C 81% 1.0 mph SW1.6 kmh SW -- 30.03 in1016.9 mb 0.00 in0.0 mm 0.00 in0.0 mm 0.00 in0.0 mm
12:55 AM 69.1°F20.6°C 63.0°F17.2°C 81% 3.0 mph S4.8 kmh S -- 30.02 in1016.6 mb 0.00 in0.0 mm 0.00 in0.0 mm 0.00 in0.0 mm
01:00 AM 68.9°F20.5°C 62.8°F17.1°C 81% 2.0 mph WSW3.2 kmh WSW -- 30.02 in1016.6 mb 0.00 in0.0 mm 0.00 in0.0 mm 0.00 in0.0 mm
01:05 AM 69.1°F20.6°C 63.0°F17.2°C 81% 2.0 mph W3.2 kmh W -- 30.02 in1016.6 mb 0.00 in0.0 mm 0.00 in0.0 mm 0.00 in0.0 mm
01:10 AM 69.3°F20.7°C 62.8°F17.1°C 80% 3.0 mph WSW4.8 kmh WSW -- 30.03 in1016.9 mb 0.00 in0.0 mm 0.00 in0.0 mm 0.00 in0.0 mm
01:15 AM 68.7°F20.4°C 62.6°F17.0°C 81% 4.0 mph ENE6.4 kmh ENE -- 30.02 in1016.6 mb 0.00 in0.0 mm 0.00 in0.0 mm 0.00 in0.0 mm
01:20 AM 68.9°F20.5°C 62.8°F17.1°C 81% 3.0 mph SW4.8 kmh SW -- 30.02 in1016.6 mb 0.00 in0.0 mm 0.00 in0.0 mm 0.00 in0.0 mm
01:25 AM 69.3°F20.7°C 63.1°F17.3°C 81% 2.0 mph SSE3.2 kmh SSE -- 30.02 in1016.6 mb 0.00 in0.0 mm 0.00 in0.0 mm 0.00 in0.0 mm
01:30 AM 69.3°F20.7°C 62.8°F17.1°C 80% 5.0 mph WSW8.0 kmh WSW -- 30.02 in1016.6 mb 0.00 in0.0 mm 0.00 in0.0 mm 0.00 in0.0 mm
01:35 AM 69.1°F20.6°C 63.0°F17.2°C 81% 3.0 mph SSW4.8 kmh SSW -- 30.02 in1016.6 mb 0.00 in0.0 mm 0.00 in0.0 mm 0.00 in0.0 mm
01:40 AM 68.9°F20.5°C 62.8°F17.1°C 81% 3.0 mph SW4.8 kmh SW -- 30.01 in1016.3 mb 0.00 in0.0 mm 0.00 in0.0 mm 0.00 in0.0 mm
01:45 AM 69.3°F20.7°C 62.8°F17.1°C 80% 5.0 mph SE8.0 kmh SE -- 30.01 in1016.3 mb 0.00 in0.0 mm 0.00 in0.0 mm 0.00 in0.0 mm
01:50 AM 69.1°F20.6°C 62.6°F17.0°C 80% 7.0 mph SW11.3 kmh SW -- 30.01 in1016.3 mb 0.00 in0.0 mm 0.00 in0.0 mm 0.00 in0.0 mm
01:55 AM 69.4°F20.8°C 63.0°F17.2°C 80% 6.0 mph WSW9.7 kmh WSW -- 30.01 in1016.3 mb 0.00 in0.0 mm 0.00 in0.0 mm 0.00 in0.0 mm
02:00 AM 69.4°F20.8°C 62.6°F17.0°C 79% 2.0 mph SSE3.2 kmh SSE -- 30.02 in1016.6 mb 0.00 in0.0 mm 0.00 in0.0 mm 0.00 in0.0 mm
02:05 AM 69.4°F20.8°C 62.6°F17.0°C 79% 5.0 mph S8.0 kmh S -- 30.01 in1016.3 mb 0.00 in0.0 mm 0.00 in0.0 mm 0.00 in0.0 mm
02:10 AM 69.6°F20.9°C 62.8°F17.1°C 79% 3.0 mph W4.8 kmh W -- 30.00 in1015.9 mb 0.00 in0.0 mm 0.00 in0.0 mm 0.00 in0.0 mm
02:15 AM 70.0°F21.1°C 62.8°F17.1°C 78% 5.0 mph SW8.0 kmh SW -- 30.00 in1015.9 mb 0.00 in0.0 mm 0.00 in0.0 mm 0.00 in0.0 mm
02:20 AM 69.6°F20.9°C 62.4°F16.9°C 78% 3.0 mph WNW4.8 kmh WNW -- 30.01 in1016.3 mb 0.00 in0.0 mm 0.00 in0.0 mm 0.00 in0.0 mm
02:25 AM 70.0°F21.1°C 62.8°F17.1°C 78% 4.0 mph ESE6.4 kmh ESE -- 30.01 in1016.3 mb 0.00 in0.0 mm 0.00 in0.0 mm 0.00 in0.0 mm
02:30 AM 70.2°F21.2°C 62.6°F17.0°C 77% 7.0 mph SSE11.3 kmh SSE -- 30.01 in1016.3 mb 0.00 in0.0 mm 0.00 in0.0 mm 0.00 in0.0 mm
02:35 AM 70.7°F21.5°C 63.1°F17.3°C 77% 3.0 mph S4.8 kmh S -- 30.00 in1015.9 mb 0.00 in0.0 mm 0.00 in0.0 mm 0.00 in0.0 mm
02:40 AM 70.5°F21.4°C 62.6°F17.0°C 76% 6.0 mph SW9.7 kmh SW -- 30.00 in1015.9 mb 0.00 in0.0 mm 0.00 in0.0 mm 0.00 in0.0 mm
02:45 AM 70.3°F21.3°C 62.8°F17.1°C 77% 4.0 mph S6.4 kmh S -- 30.00 in1015.9 mb 0.00 in0.0 mm 0.00 in0.0 mm 0.00 in0.0 mm
02:50 AM 70.5°F21.4°C 62.6°F17.0°C 76% 4.0 mph SW6.4 kmh SW -- 30.00 in1015.9 mb 0.00 in0.0 mm 0.00 in0.0 mm 0.00 in0.0 mm
02:55 AM 70.2°F21.2°C 62.2°F16.8°C 76% 4.0 mph WSW6.4 kmh WSW -- 30.00 in1015.9 mb 0.00 in0.0 mm 0.00 in0.0 mm 0.00 in0.0 mm
03:00 AM 70.7°F21.5°C 62.7°F17.1°C 76% 4.0 mph W6.4 kmh W -- 30.00 in1015.9 mb 0.00 in0.0 mm 0.00 in0.0 mm 0.00 in0.0 mm
03:05 AM 70.3°F21.3°C 62.4°F16.9°C 76% 6.0 mph ESE9.7 kmh ESE -- 30.00 in1015.9 mb 0.00 in0.0 mm 0.00 in0.0 mm 0.00 in0.0 mm
03:10 AM 70.2°F21.2°C 62.6°F17.0°C 77% 4.0 mph SSW6.4 kmh SSW -- 29.99 in1015.6 mb 0.00 in0.0 mm 0.00 in0.0 mm 0.00 in0.0 mm
03:15 AM 70.0°F21.1°C 62.4°F16.9°C 77% 3.0 mph NNE4.8 kmh NNE -- 30.00 in1015.9 mb 0.00 in0.0 mm 0.00 in0.0 mm 0.00 in0.0 mm
03:20 AM 69.8°F21.0°C 62.2°F16.8°C 77% 5.0 mph S8.0 kmh S -- 30.00 in1015.9 mb 0.00 in0.0 mm 0.00 in0.0 mm 0.00 in0.0 mm
03:25 AM 70.2°F21.2°C 62.6°F17.0°C 77% 2.0 mph W3.2 kmh W -- 29.99 in1015.6 mb 0.00 in0.0 mm 0.00 in0.0 mm 0.00 in0.0 mm
03:30 AM 70.0°F21.1°C 62.4°F16.9°C 77% 4.0 mph W6.4 kmh W -- 30.00 in1015.9 mb 0.00 in0.0 mm 0.00 in0.0 mm 0.00 in0.0 mm
03:35 AM 70.0°F21.1°C 62.4°F16.9°C 77% 14.0 mph SSW22.5 kmh SSW -- 30.00 in1015.9 mb 0.00 in0.0 mm 0.00 in0.0 mm 0.00 in0.0 mm
03:40 AM 70.2°F21.2°C 62.2°F16.8°C 76% 3.0 mph W4.8 kmh W -- 30.00 in1015.9 mb 0.00 in0.0 mm 0.00 in0.0 mm 0.00 in0.0 mm
03:45 AM 70.3°F21.3°C 62.4°F16.9°C 76% 4.0 mph WSW6.4 kmh WSW -- 30.00 in1015.9 mb 0.00 in0.0 mm 0.00 in0.0 mm 0.00 in0.0 mm
03:50 AM 70.2°F21.2°C 62.2°F16.8°C 76% 5.0 mph SW8.0 kmh SW -- 30.00 in1015.9 mb 0.00 in0.0 mm 0.00 in0.0 mm 0.00 in0.0 mm
03:55 AM 70.0°F21.1°C 62.0°F16.7°C 76% 7.0 mph ESE11.3 kmh ESE -- 30.00 in1015.9 mb 0.00 in0.0 mm 0.00 in0.0 mm 0.00 in0.0 mm
04:00 AM 69.8°F21.0°C 62.2°F16.8°C 77% 3.0 mph S4.8 kmh S -- 30.00 in1015.9 mb 0.00 in0.0 mm 0.00 in0.0 mm 0.00 in0.0 mm
04:05 AM 70.5°F21.4°C 62.6°F17.0°C 76% 4.0 mph SSE6.4 kmh SSE -- 30.01 in1016.3 mb 0.00 in0.0 mm 0.00 in0.0 mm 0.00 in0.0 mm
04:10 AM 70.2°F21.2°C 62.2°F16.8°C 76% 6.0 mph W9.7 kmh W -- 30.01 in1016.3 mb 0.00 in0.0 mm 0.00 in0.0 mm 0.00 in0.0 mm
04:15 AM 70.3°F21.3°C 62.4°F16.9°C 76% 6.0 mph SSE9.7 kmh SSE -- 30.01 in1016.3 mb 0.00 in0.0 mm 0.00 in0.0 mm 0.00 in0.0 mm
04:20 AM 70.7°F21.5°C 62.7°F17.1°C 76% 6.0 mph S9.7 kmh S -- 30.01 in1016.3 mb 0.00 in0.0 mm 0.00 in0.0 mm 0.00 in0.0 mm
04:25 AM 70.0°F21.1°C 62.4°F16.9°C 77% 8.0 mph WSW12.9 kmh WSW -- 30.01 in1016.3 mb 0.00 in0.0 mm 0.00 in0.0 mm 0.00 in0.0 mm
04:30 AM 70.2°F21.2°C 62.6°F17.0°C 77% 6.0 mph W9.7 kmh W -- 30.01 in1016.3 mb 0.00 in0.0 mm 0.00 in0.0 mm 0.00 in0.0 mm
04:35 AM 70.2°F21.2°C 62.6°F17.0°C 77% 4.0 mph SW6.4 kmh SW -- 30.01 in1016.3 mb 0.00 in0.0 mm 0.00 in0.0 mm 0.00 in0.0 mm
04:40 AM 70.5°F21.4°C 62.6°F17.0°C 76% 5.0 mph SW8.0 kmh SW -- 30.01 in1016.3 mb 0.00 in0.0 mm 0.00 in0.0 mm 0.00 in0.0 mm
04:45 AM 70.2°F21.2°C 62.2°F16.8°C 76% 4.0 mph ESE6.4 kmh ESE -- 30.01 in1016.3 mb 0.00 in0.0 mm 0.00 in0.0 mm 0.00 in0.0 mm
04:50 AM 70.2°F21.2°C 62.2°F16.8°C 76% 3.0 mph SW4.8 kmh SW -- 30.01 in1016.3 mb 0.00 in0.0 mm 0.00 in0.0 mm 0.00 in0.0 mm
04:55 AM 70.3°F21.3°C 62.4°F16.9°C 76% 2.0 mph SSW3.2 kmh SSW -- 30.01 in1016.3 mb 0.00 in0.0 mm 0.00 in0.0 mm 0.00 in0.0 mm
05:00 AM 70.3°F21.3°C 62.4°F16.9°C 76% 3.0 mph W4.8 kmh W -- 30.02 in1016.6 mb 0.00 in0.0 mm 0.00 in0.0 mm 0.00 in0.0 mm
05:05 AM 70.3°F21.3°C 62.4°F16.9°C 76% 3.0 mph SW4.8 kmh SW -- 30.02 in1016.6 mb 0.00 in0.0 mm 0.00 in0.0 mm 0.00 in0.0 mm
05:10 AM 70.7°F21.5°C 62.7°F17.1°C 76% 6.0 mph W9.7 kmh W -- 30.02 in1016.6 mb 0.00 in0.0 mm 0.00 in0.0 mm 0.00 in0.0 mm
05:15 AM 70.5°F21.4°C 62.6°F17.0°C 76% 4.0 mph W6.4 kmh W -- 30.02 in1016.6 mb 0.00 in0.0 mm 0.00 in0.0 mm 0.00 in0.0 mm
05:20 AM 70.2°F21.2°C 62.6°F17.0°C 77% 6.0 mph W9.7 kmh W -- 30.02 in1016.6 mb 0.00 in0.0 mm 0.00 in0.0 mm 0.00 in0.0 mm
05:25 AM 70.2°F21.2°C 62.6°F17.0°C 77% 4.0 mph W6.4 kmh W -- 30.02 in1016.6 mb 0.00 in0.0 mm 0.00 in0.0 mm 0.00 in0.0 mm
05:30 AM 70.3°F21.3°C 62.8°F17.1°C 77% 3.0 mph W4.8 kmh W -- 30.02 in1016.6 mb 0.00 in0.0 mm 0.00 in0.0 mm 0.00 in0.0 mm
05:35 AM 70.5°F21.4°C 62.6°F17.0°C 76% 1.0 mph SW1.6 kmh SW -- 30.01 in1016.3 mb 0.00 in0.0 mm 0.00 in0.0 mm 0.00 in0.0 mm
05:40 AM 70.7°F21.5°C 62.7°F17.1°C 76% 2.0 mph W3.2 kmh W -- 30.01 in1016.3 mb 0.00 in0.0 mm 0.00 in0.0 mm 0.00 in0.0 mm
05:45 AM 70.3°F21.3°C 62.4°F16.9°C 76% 3.0 mph W4.8 kmh W -- 30.02 in1016.6 mb 0.00 in0.0 mm 0.00 in0.0 mm 0.00 in0.0 mm
05:50 AM 70.5°F21.4°C 62.6°F17.0°C 76% 3.0 mph ESE4.8 kmh ESE -- 30.02 in1016.6 mb 0.00 in0.0 mm 0.00 in0.0 mm 0.00 in0.0 mm
05:55 AM 70.7°F21.5°C 62.7°F17.1°C 76% 2.0 mph S3.2 kmh S -- 30.02 in1016.6 mb 0.00 in0.0 mm 0.00 in0.0 mm 0.00 in0.0 mm
06:00 AM 71.1°F21.7°C 63.1°F17.3°C 76% Calm Calm -- 30.02 in1016.6 mb 0.00 in0.0 mm 0.00 in0.0 mm 0.00 in0.0 mm
06:05 AM 70.5°F21.4°C 62.6°F17.0°C 76% 1.0 mph W1.6 kmh W -- 30.02 in1016.6 mb 0.00 in0.0 mm 0.00 in0.0 mm 0.00 in0.0 mm
06:10 AM 70.7°F21.5°C 62.7°F17.1°C 76% 1.0 mph W1.6 kmh W -- 30.02 in1016.6 mb 0.00 in0.0 mm 0.00 in0.0 mm 0.00 in0.0 mm
06:15 AM 70.2°F21.2°C 62.6°F17.0°C 77% 3.0 mph SW4.8 kmh SW -- 30.02 in1016.6 mb 0.00 in0.0 mm 0.00 in0.0 mm 0.00 in0.0 mm
06:20 AM 70.5°F21.4°C 62.6°F17.0°C 76% 2.0 mph SSW3.2 kmh SSW -- 30.02 in1016.6 mb 0.00 in0.0 mm 0.00 in0.0 mm 0.00 in0.0 mm
06:25 AM 70.2°F21.2°C 62.6°F17.0°C 77% 2.0 mph WSW3.2 kmh WSW -- 30.02 in1016.6 mb 0.00 in0.0 mm 0.00 in0.0 mm 0.00 in0.0 mm
06:30 AM 70.9°F21.6°C 62.9°F17.2°C 76% Calm Calm -- 30.03 in1016.9 mb 0.00 in0.0 mm 0.00 in0.0 mm 0.00 in0.0 mm
06:35 AM 70.9°F21.6°C 62.9°F17.2°C 76% 1.0 mph SW1.6 kmh SW -- 30.03 in1016.9 mb 0.00 in0.0 mm 0.00 in0.0 mm 0.00 in0.0 mm
06:40 AM 71.1°F21.7°C 63.1°F17.3°C 76% Calm Calm -- 30.02 in1016.6 mb 0.00 in0.0 mm 0.00 in0.0 mm 0.00 in0.0 mm
06:45 AM 70.5°F21.4°C 62.9°F17.2°C 77% Calm Calm -- 30.03 in1016.9 mb 0.00 in0.0 mm 0.00 in0.0 mm 0.00 in0.0 mm
06:50 AM 70.2°F21.2°C 62.6°F17.0°C 77% 2.0 mph S3.2 kmh S -- 30.03 in1016.9 mb 0.00 in0.0 mm 0.00 in0.0 mm 0.00 in0.0 mm
06:55 AM 70.5°F21.4°C 62.9°F17.2°C 77% 1.0 mph WSW1.6 kmh WSW -- 30.02 in1016.6 mb 0.00 in0.0 mm 0.00 in0.0 mm 0.00 in0.0 mm
07:00 AM 70.7°F21.5°C 63.1°F17.3°C 77% Calm Calm -- 30.03 in1016.9 mb 0.00 in0.0 mm 0.00 in0.0 mm 0.00 in0.0 mm
07:05 AM 70.7°F21.5°C 62.7°F17.1°C 76% 2.0 mph W3.2 kmh W -- 30.03 in1016.9 mb 0.00 in0.0 mm 0.00 in0.0 mm 0.00 in0.0 mm
07:10 AM 70.3°F21.3°C 62.8°F17.1°C 77% 2.0 mph WNW3.2 kmh WNW -- 30.04 in1017.3 mb 0.00 in0.0 mm 0.00 in0.0 mm 0.00 in0.0 mm
07:15 AM 70.3°F21.3°C 62.8°F17.1°C 77% 1.0 mph WNW1.6 kmh WNW -- 30.05 in1017.6 mb 0.00 in0.0 mm 0.00 in0.0 mm 0.00 in0.0 mm
07:20 AM 71.1°F21.7°C 63.5°F17.5°C 77% Calm Calm -- 30.05 in1017.6 mb 0.00 in0.0 mm 0.00 in0.0 mm 0.00 in0.0 mm
07:25 AM 71.1°F21.7°C 63.5°F17.5°C 77% Calm Calm -- 30.05 in1017.6 mb 0.00 in0.0 mm 0.00 in0.0 mm 0.00 in0.0 mm
07:30 AM 70.9°F21.6°C 63.3°F17.4°C 77% Calm Calm -- 30.05 in1017.6 mb 0.00 in0.0 mm 0.00 in0.0 mm 0.00 in0.0 mm
07:35 AM 70.9°F21.6°C 63.3°F17.4°C 77% Calm Calm -- 30.05 in1017.6 mb 0.00 in0.0 mm 0.00 in0.0 mm 0.00 in0.0 mm
07:40 AM 71.4°F21.9°C 63.4°F17.4°C 76% Calm Calm -- 30.05 in1017.6 mb 0.00 in0.0 mm 0.00 in0.0 mm 0.00 in0.0 mm
07:45 AM 71.1°F21.7°C 63.5°F17.5°C 77% Calm Calm -- 30.05 in1017.6 mb 0.00 in0.0 mm 0.00 in0.0 mm 0.00 in0.0 mm
07:55 AM 70.7°F21.5°C 63.1°F17.3°C 77% Calm Calm -- 30.06 in1017.9 mb 0.00 in0.0 mm 0.00 in0.0 mm 0.00 in0.0 mm
08:00 AM 70.9°F21.6°C 63.3°F17.4°C 77% Calm Calm -- 30.06 in1017.9 mb 0.00 in0.0 mm 0.00 in0.0 mm 0.00 in0.0 mm
08:05 AM 71.1°F21.7°C 63.5°F17.5°C 77% Calm Calm -- 30.06 in1017.9 mb 0.00 in0.0 mm 0.00 in0.0 mm 0.00 in0.0 mm
08:10 AM 71.1°F21.7°C 63.5°F17.5°C 77% Calm Calm -- 30.06 in1017.9 mb 0.00 in0.0 mm 0.00 in0.0 mm 0.00 in0.0 mm
08:15 AM 71.2°F21.8°C 63.6°F17.6°C 77% Calm Calm -- 30.06 in1017.9 mb 0.00 in0.0 mm 0.00 in0.0 mm 0.00 in0.0 mm
08:20 AM 71.4°F21.9°C 63.8°F17.7°C 77% Calm Calm -- 30.06 in1017.9 mb 0.00 in0.0 mm 0.00 in0.0 mm 0.00 in0.0 mm
08:25 AM 71.1°F21.7°C 63.8°F17.7°C 78% Calm Calm -- 30.06 in1017.9 mb 0.00 in0.0 mm 0.00 in0.0 mm 0.00 in0.0 mm
08:30 AM 71.4°F21.9°C 64.2°F17.9°C 78% Calm Calm -- 30.06 in1017.9 mb 0.00 in0.0 mm 0.00 in0.0 mm 0.00 in0.0 mm
08:35 AM 71.6°F22.0°C 64.3°F17.9°C 78% Calm Calm -- 30.07 in1018.3 mb 0.00 in0.0 mm 0.00 in0.0 mm 0.00 in0.0 mm
08:40 AM 71.4°F21.9°C 64.5°F18.1°C 79% Calm Calm -- 30.06 in1017.9 mb 0.00 in0.0 mm 0.00 in0.0 mm 0.00 in0.0 mm
08:45 AM 72.1°F22.3°C 65.2°F18.4°C 79% Calm Calm -- 30.06 in1017.9 mb 0.00 in0.0 mm 0.00 in0.0 mm 0.00 in0.0 mm
08:50 AM 72.7°F22.6°C 65.8°F18.8°C 79% Calm Calm -- 30.06 in1017.9 mb 0.00 in0.0 mm 0.00 in0.0 mm 0.00 in0.0 mm
08:55 AM 72.9°F22.7°C 65.6°F18.7°C 78% Calm Calm -- 30.06 in1017.9 mb 0.00 in0.0 mm 0.00 in0.0 mm 0.00 in0.0 mm
09:00 AM 73.2°F22.9°C 65.5°F18.6°C 77% Calm Calm -- 30.06 in1017.9 mb 0.00 in0.0 mm 0.00 in0.0 mm 0.00 in0.0 mm
09:05 AM 73.0°F22.8°C 65.4°F18.6°C 77% Calm Calm -- 30.06 in1017.9 mb 0.00 in0.0 mm 0.00 in0.0 mm 0.00 in0.0 mm
09:10 AM 72.7°F22.6°C 65.8°F18.8°C 79% Calm Calm -- 30.06 in1017.9 mb 0.00 in0.0 mm 0.00 in0.0 mm 0.00 in0.0 mm
09:15 AM 72.3°F22.4°C 65.8°F18.8°C 80% Calm Calm -- 30.07 in1018.3 mb 0.00 in0.0 mm 0.00 in0.0 mm 0.00 in0.0 mm
09:20 AM 71.4°F21.9°C 65.3°F18.5°C 81% 1.0 mph E1.6 kmh E -- 30.07 in1018.3 mb 0.00 in0.0 mm 0.00 in0.0 mm 0.00 in0.0 mm
09:25 AM 71.4°F21.9°C 65.6°F18.7°C 82% Calm Calm -- 30.06 in1017.9 mb 0.01 in0.3 mm 0.12 in3.0 mm 0.01 in0.3 mm
09:30 AM 71.2°F21.8°C 65.8°F18.8°C 83% Calm Calm -- 30.06 in1017.9 mb 0.03 in0.8 mm 0.24 in6.1 mm 0.03 in0.8 mm
09:35 AM 71.6°F22.0°C 66.1°F18.9°C 83% Calm Calm -- 30.07 in1018.3 mb 0.03 in0.8 mm 0.00 in0.0 mm 0.03 in0.8 mm
09:40 AM 71.6°F22.0°C 66.1°F18.9°C 83% Calm Calm -- 30.06 in1017.9 mb 0.03 in0.8 mm 0.00 in0.0 mm 0.03 in0.8 mm
09:45 AM 70.7°F21.5°C 65.9°F18.8°C 85% 2.0 mph ESE3.2 kmh ESE -- 30.06 in1017.9 mb 0.03 in0.8 mm 0.00 in0.0 mm 0.03 in0.8 mm
09:50 AM 70.5°F21.4°C 65.8°F18.8°C 85% 1.0 mph ESE1.6 kmh ESE -- 30.06 in1017.9 mb 0.03 in0.8 mm 0.00 in0.0 mm 0.03 in0.8 mm
09:55 AM 70.3°F21.3°C 65.6°F18.7°C 85% 1.0 mph ESE1.6 kmh ESE -- 30.06 in1017.9 mb 0.03 in0.8 mm 0.00 in0.0 mm 0.03 in0.8 mm
10:00 AM 70.7°F21.5°C 65.9°F18.8°C 85% Calm Calm -- 30.06 in1017.9 mb 0.03 in0.8 mm 0.00 in0.0 mm 0.03 in0.8 mm
10:05 AM 71.2°F21.8°C 66.5°F19.2°C 85% Calm Calm -- 30.06 in1017.9 mb 0.03 in0.8 mm 0.00 in0.0 mm 0.03 in0.8 mm
10:10 AM 70.3°F21.3°C 65.6°F18.7°C 85% 1.0 mph ESE1.6 kmh ESE -- 30.06 in1017.9 mb 0.03 in0.8 mm 0.00 in0.0 mm 0.03 in0.8 mm
10:15 AM 71.1°F21.7°C 66.3°F19.1°C 85% 1.0 mph W1.6 kmh W -- 30.06 in1017.9 mb 0.02 in0.5 mm 0.00 in0.0 mm 0.03 in0.8 mm
10:20 AM 70.9°F21.6°C 65.8°F18.8°C 84% Calm Calm -- 30.06 in1017.9 mb 0.02 in0.5 mm 0.00 in0.0 mm 0.03 in0.8 mm
10:25 AM 70.9°F21.6°C 65.8°F18.8°C 84% Calm Calm -- 30.07 in1018.3 mb 0.01 in0.3 mm 0.00 in0.0 mm 0.04 in1.0 mm
10:30 AM 71.1°F21.7°C 66.0°F18.9°C 84% Calm Calm -- 30.07 in1018.3 mb 0.01 in0.3 mm 0.00 in0.0 mm 0.04 in1.0 mm
10:35 AM 70.0°F21.1°C 65.6°F18.7°C 86% 2.0 mph E3.2 kmh E -- 30.06 in1017.9 mb 0.01 in0.3 mm 0.00 in0.0 mm 0.04 in1.0 mm
10:40 AM 70.3°F21.3°C 65.9°F18.8°C 86% 1.0 mph S1.6 kmh S -- 30.06 in1017.9 mb 0.01 in0.3 mm 0.00 in0.0 mm 0.04 in1.0 mm
10:45 AM 70.2°F21.2°C 65.8°F18.8°C 86% 1.0 mph SSE1.6 kmh SSE -- 30.05 in1017.6 mb 0.01 in0.3 mm 0.00 in0.0 mm 0.04 in1.0 mm
10:50 AM 70.2°F21.2°C 65.8°F18.8°C 86% 2.0 mph SSE3.2 kmh SSE -- 30.06 in1017.9 mb 0.01 in0.3 mm 0.00 in0.0 mm 0.04 in1.0 mm
10:55 AM 70.5°F21.4°C 66.1°F18.9°C 86% Calm Calm -- 30.06 in1017.9 mb 0.01 in0.3 mm 0.00 in0.0 mm 0.04 in1.0 mm
11:00 AM 70.5°F21.4°C 66.1°F18.9°C 86% Calm Calm -- 30.06 in1017.9 mb 0.01 in0.3 mm 0.00 in0.0 mm 0.04 in1.0 mm
11:05 AM 70.5°F21.4°C 66.1°F18.9°C 86% Calm Calm -- 30.06 in1017.9 mb 0.01 in0.3 mm 0.00 in0.0 mm 0.04 in1.0 mm
11:10 AM 70.3°F21.3°C 65.9°F18.8°C 86% Calm Calm -- 30.06 in1017.9 mb 0.01 in0.3 mm 0.00 in0.0 mm 0.04 in1.0 mm
11:15 AM 70.7°F21.5°C 66.3°F19.1°C 86% 2.0 mph ESE3.2 kmh ESE -- 30.06 in1017.9 mb 0.01 in0.3 mm 0.00 in0.0 mm 0.04 in1.0 mm
11:20 AM 69.8°F21.0°C 65.7°F18.7°C 87% Calm Calm -- 30.05 in1017.6 mb 0.01 in0.3 mm 0.00 in0.0 mm 0.04 in1.0 mm
11:25 AM 70.2°F21.2°C 66.1°F18.9°C 87% 1.0 mph SSE1.6 kmh SSE -- 30.05 in1017.6 mb 0.00 in0.0 mm 0.00 in0.0 mm 0.04 in1.0 mm
11:30 AM 70.7°F21.5°C 66.6°F19.2°C 87% Calm Calm -- 30.05 in1017.6 mb 0.00 in0.0 mm 0.00 in0.0 mm 0.04 in1.0 mm
11:35 AM 70.7°F21.5°C 66.3°F19.1°C 86% Calm Calm -- 30.05 in1017.6 mb 0.00 in0.0 mm 0.00 in0.0 mm 0.04 in1.0 mm
11:40 AM 71.2°F21.8°C 66.8°F19.3°C 86% Calm Calm -- 30.05 in1017.6 mb 0.00 in0.0 mm 0.00 in0.0 mm 0.04 in1.0 mm
11:45 AM 71.2°F21.8°C 66.8°F19.3°C 86% Calm Calm -- 30.05 in1017.6 mb 0.00 in0.0 mm 0.00 in0.0 mm 0.04 in1.0 mm
11:50 AM 71.2°F21.8°C 66.5°F19.2°C 85% Calm Calm -- 30.05 in1017.6 mb 0.00 in0.0 mm 0.00 in0.0 mm 0.04 in1.0 mm
11:55 AM 71.6°F22.0°C 66.8°F19.3°C 85% Calm Calm -- 30.05 in1017.6 mb 0.00 in0.0 mm 0.00 in0.0 mm 0.04 in1.0 mm
12:00 PM 72.0°F22.2°C 67.2°F19.6°C 85% Calm Calm -- 30.05 in1017.6 mb 0.00 in0.0 mm 0.00 in0.0 mm 0.04 in1.0 mm
12:05 PM 71.6°F22.0°C 66.8°F19.3°C 85% Calm Calm -- 30.05 in1017.6 mb 0.00 in0.0 mm 0.00 in0.0 mm 0.04 in1.0 mm
12:10 PM 72.0°F22.2°C 66.8°F19.3°C 84% Calm Calm -- 30.05 in1017.6 mb 0.00 in0.0 mm 0.00 in0.0 mm 0.04 in1.0 mm
12:15 PM 72.0°F22.2°C 67.2°F19.6°C 85% Calm Calm -- 30.05 in1017.6 mb 0.00 in0.0 mm 0.00 in0.0 mm 0.04 in1.0 mm
12:20 PM 71.8°F22.1°C 67.0°F19.4°C 85% Calm Calm -- 30.05 in1017.6 mb 0.00 in0.0 mm 0.00 in0.0 mm 0.04 in1.0 mm
12:25 PM 72.0°F22.2°C 67.2°F19.6°C 85% 1.0 mph ESE1.6 kmh ESE -- 30.04 in1017.3 mb 0.00 in0.0 mm 0.00 in0.0 mm 0.04 in1.0 mm
12:30 PM 71.6°F22.0°C 67.2°F19.6°C 86% Calm Calm -- 30.03 in1016.9 mb 0.00 in0.0 mm 0.00 in0.0 mm 0.04 in1.0 mm
12:35 PM 71.1°F21.7°C 67.0°F19.4°C 87% 3.0 mph SSE4.8 kmh SSE -- 30.03 in1016.9 mb 0.00 in0.0 mm 0.00 in0.0 mm 0.04 in1.0 mm
12:40 PM 70.7°F21.5°C 67.0°F19.4°C 88% 2.0 mph ESE3.2 kmh ESE -- 30.02 in1016.6 mb 0.00 in0.0 mm 0.00 in0.0 mm 0.04 in1.0 mm
12:45 PM 70.9°F21.6°C 66.8°F19.3°C 87% Calm Calm -- 30.02 in1016.6 mb 0.01 in0.3 mm 0.12 in3.0 mm 0.05 in1.3 mm
12:50 PM 70.9°F21.6°C 66.8°F19.3°C 87% 1.0 mph E1.6 kmh E -- 30.02 in1016.6 mb 0.01 in0.3 mm 0.00 in0.0 mm 0.05 in1.3 mm
12:55 PM 71.2°F21.8°C 67.2°F19.6°C 87% 2.0 mph SE3.2 kmh SE -- 30.02 in1016.6 mb 0.01 in0.3 mm 0.00 in0.0 mm 0.05 in1.3 mm
01:00 PM 71.2°F21.8°C 67.5°F19.7°C 88% 1.0 mph ENE1.6 kmh ENE -- 30.02 in1016.6 mb 0.01 in0.3 mm 0.00 in0.0 mm 0.05 in1.3 mm
01:05 PM 71.2°F21.8°C 67.5°F19.7°C 88% 2.0 mph SSE3.2 kmh SSE -- 30.02 in1016.6 mb 0.01 in0.3 mm 0.00 in0.0 mm 0.05 in1.3 mm
01:10 PM 71.4°F21.9°C 67.7°F19.8°C 88% 1.0 mph S1.6 kmh S -- 30.01 in1016.3 mb 0.01 in0.3 mm 0.00 in0.0 mm 0.05 in1.3 mm
01:15 PM 71.6°F22.0°C 67.8°F19.9°C 88% 4.0 mph SE6.4 kmh SE -- 30.00 in1015.9 mb 0.01 in0.3 mm 0.00 in0.0 mm 0.05 in1.3 mm
01:20 PM 71.6°F22.0°C 67.8°F19.9°C 88% 3.0 mph S4.8 kmh S -- 30.00 in1015.9 mb 0.01 in0.3 mm 0.00 in0.0 mm 0.05 in1.3 mm
01:25 PM 72.3°F22.4°C 68.2°F20.1°C 87% 1.0 mph SE1.6 kmh SE -- 30.00 in1015.9 mb 0.01 in0.3 mm 0.00 in0.0 mm 0.05 in1.3 mm
01:30 PM 72.3°F22.4°C 68.2°F20.1°C 87% 1.0 mph SSE1.6 kmh SSE -- 30.01 in1016.3 mb 0.01 in0.3 mm 0.00 in0.0 mm 0.05 in1.3 mm
01:35 PM 72.5°F22.5°C 68.4°F20.2°C 87% 5.0 mph SSE8.0 kmh SSE -- 30.00 in1015.9 mb 0.01 in0.3 mm 0.00 in0.0 mm 0.05 in1.3 mm
01:40 PM 72.5°F22.5°C 68.4°F20.2°C 87% 1.0 mph E1.6 kmh E -- 30.00 in1015.9 mb 0.01 in0.3 mm 0.00 in0.0 mm 0.05 in1.3 mm
01:45 PM 73.0°F22.8°C 68.9°F20.5°C 87% 2.0 mph SSE3.2 kmh SSE -- 29.99 in1015.6 mb 0.00 in0.0 mm 0.00 in0.0 mm 0.05 in1.3 mm
01:50 PM 72.9°F22.7°C 68.7°F20.4°C 87% Calm Calm -- 29.99 in1015.6 mb 0.00 in0.0 mm 0.00 in0.0 mm 0.05 in1.3 mm
01:55 PM 72.9°F22.7°C 68.7°F20.4°C 87% 1.0 mph ESE1.6 kmh ESE -- 29.99 in1015.6 mb 0.00 in0.0 mm 0.00 in0.0 mm 0.05 in1.3 mm
02:00 PM 72.9°F22.7°C 68.7°F20.4°C 87% Calm Calm -- 29.99 in1015.6 mb 0.00 in0.0 mm 0.00 in0.0 mm 0.05 in1.3 mm
02:05 PM 73.2°F22.9°C 69.1°F20.6°C 87% Calm Calm -- 29.99 in1015.6 mb 0.00 in0.0 mm 0.00 in0.0 mm 0.05 in1.3 mm
02:10 PM 73.2°F22.9°C 69.1°F20.6°C 87% Calm Calm -- 29.99 in1015.6 mb 0.01 in0.3 mm 0.12 in3.0 mm 0.06 in1.5 mm
02:15 PM 73.0°F22.8°C 68.9°F20.5°C 87% Calm Calm -- 29.99 in1015.6 mb 0.01 in0.3 mm 0.00 in0.0 mm 0.06 in1.5 mm
02:20 PM 72.7°F22.6°C 68.9°F20.5°C 88% 1.0 mph SSE1.6 kmh SSE -- 29.99 in1015.6 mb 0.01 in0.3 mm 0.00 in0.0 mm 0.06 in1.5 mm
02:25 PM 73.0°F22.8°C 69.3°F20.7°C 88% 1.0 mph S1.6 kmh S -- 29.99 in1015.6 mb 0.01 in0.3 mm 0.00 in0.0 mm 0.06 in1.5 mm
02:30 PM 72.9°F22.7°C 69.1°F20.6°C 88% 1.0 mph ENE1.6 kmh ENE -- 29.99 in1015.6 mb 0.01 in0.3 mm 0.00 in0.0 mm 0.06 in1.5 mm
02:35 PM 72.3°F22.4°C 68.9°F20.5°C 89% 1.0 mph ESE1.6 kmh ESE -- 29.98 in1015.2 mb 0.01 in0.3 mm 0.00 in0.0 mm 0.06 in1.5 mm
02:40 PM 72.5°F22.5°C 69.1°F20.6°C 89% Calm Calm -- 29.97 in1014.9 mb 0.01 in0.3 mm 0.00 in0.0 mm 0.06 in1.5 mm
02:45 PM 72.1°F22.3°C 68.7°F20.4°C 89% 3.0 mph NW4.8 kmh NW -- 29.96 in1014.6 mb 0.01 in0.3 mm 0.00 in0.0 mm 0.06 in1.5 mm
02:50 PM 73.4°F23.0°C 69.6°F20.9°C 88% Calm Calm -- 29.96 in1014.6 mb 0.02 in0.5 mm 0.12 in3.0 mm 0.07 in1.8 mm
02:55 PM 73.6°F23.1°C 69.8°F21.0°C 88% Calm Calm -- 29.97 in1014.9 mb 0.02 in0.5 mm 0.00 in0.0 mm 0.07 in1.8 mm
03:00 PM 73.0°F22.8°C 69.3°F20.7°C 88% 2.0 mph NE3.2 kmh NE -- 29.97 in1014.9 mb 0.02 in0.5 mm 0.00 in0.0 mm 0.07 in1.8 mm
03:05 PM 73.6°F23.1°C 69.8°F21.0°C 88% Calm Calm -- 29.97 in1014.9 mb 0.01 in0.3 mm 0.00 in0.0 mm 0.07 in1.8 mm
03:10 PM 73.9°F23.3°C 69.8°F21.0°C 87% Calm Calm -- 29.98 in1015.2 mb 0.01 in0.3 mm 0.00 in0.0 mm 0.07 in1.8 mm
03:15 PM 73.9°F23.3°C 69.8°F21.0°C 87% Calm Calm -- 29.98 in1015.2 mb 0.01 in0.3 mm 0.00 in0.0 mm 0.07 in1.8 mm
03:25 PM 73.9°F23.3°C 69.8°F21.0°C 87% Calm Calm -- 29.97 in1014.9 mb 0.01 in0.3 mm 0.00 in0.0 mm 0.07 in1.8 mm
03:30 PM 73.8°F23.2°C 69.6°F20.9°C 87% Calm Calm -- 29.97 in1014.9 mb 0.01 in0.3 mm 0.00 in0.0 mm 0.07 in1.8 mm
03:35 PM 73.9°F23.3°C 69.8°F21.0°C 87% Calm Calm -- 29.98 in1015.2 mb 0.02 in0.5 mm 0.12 in3.0 mm 0.08 in2.0 mm
03:40 PM 73.6°F23.1°C 69.8°F21.0°C 88% 2.0 mph SE3.2 kmh SE -- 29.98 in1015.2 mb 0.02 in0.5 mm 0.00 in0.0 mm 0.08 in2.0 mm
03:45 PM 73.6°F23.1°C 69.8°F21.0°C 88% Calm Calm -- 29.98 in1015.2 mb 0.02 in0.5 mm 0.00 in0.0 mm 0.09 in2.3 mm
03:50 PM 73.4°F23.0°C 69.6°F20.9°C 88% 2.0 mph SE3.2 kmh SE -- 29.98 in1015.2 mb 0.02 in0.5 mm 0.00 in0.0 mm 0.09 in2.3 mm
03:55 PM 72.9°F22.7°C 69.1°F20.6°C 88% 2.0 mph ESE3.2 kmh ESE -- 29.98 in1015.2 mb 0.02 in0.5 mm 0.00 in0.0 mm 0.09 in2.3 mm
04:00 PM 73.4°F23.0°C 69.6°F20.9°C 88% Calm Calm -- 29.98 in1015.2 mb 0.02 in0.5 mm 0.00 in0.0 mm 0.09 in2.3 mm
04:05 PM 73.4°F23.0°C 69.6°F20.9°C 88% 1.0 mph SW1.6 kmh SW -- 29.98 in1015.2 mb 0.03 in0.8 mm 0.12 in3.0 mm 0.10 in2.5 mm
04:10 PM 73.6°F23.1°C 69.8°F21.0°C 88% Calm Calm -- 29.99 in1015.6 mb 0.03 in0.8 mm 0.00 in0.0 mm 0.10 in2.5 mm
04:15 PM 73.8°F23.2°C 69.6°F20.9°C 87% 1.0 mph E1.6 kmh E -- 29.98 in1015.2 mb 0.03 in0.8 mm 0.00 in0.0 mm 0.10 in2.5 mm
04:20 PM 73.4°F23.0°C 69.3°F20.7°C 87% 2.0 mph ESE3.2 kmh ESE -- 29.98 in1015.2 mb 0.04 in1.0 mm 0.12 in3.0 mm 0.11 in2.8 mm
04:25 PM 73.4°F23.0°C 69.6°F20.9°C 88% 2.0 mph NE3.2 kmh NE -- 29.98 in1015.2 mb 0.05 in1.3 mm 0.12 in3.0 mm 0.12 in3.0 mm
04:30 PM 72.9°F22.7°C 69.1°F20.6°C 88% Calm Calm -- 29.98 in1015.2 mb 0.07 in1.8 mm 0.24 in6.1 mm 0.14 in3.6 mm
04:35 PM 72.7°F22.6°C 69.2°F20.7°C 89% 3.0 mph ESE4.8 kmh ESE -- 29.98 in1015.2 mb 0.05 in1.3 mm 0.00 in0.0 mm 0.14 in3.6 mm
04:40 PM 72.0°F22.2°C 68.5°F20.3°C 89% 2.0 mph ESE3.2 kmh ESE -- 29.98 in1015.2 mb 0.06 in1.5 mm 0.12 in3.0 mm 0.15 in3.8 mm
04:45 PM 72.1°F22.3°C 68.7°F20.4°C 89% 2.0 mph SE3.2 kmh SE -- 29.98 in1015.2 mb 0.07 in1.8 mm 0.12 in3.0 mm 0.16 in4.1 mm
04:50 PM 72.1°F22.3°C 68.7°F20.4°C 89% 1.0 mph SE1.6 kmh SE -- 29.98 in1015.2 mb 0.08 in2.0 mm 0.12 in3.0 mm 0.17 in4.3 mm
04:55 PM 72.1°F22.3°C 68.7°F20.4°C 89% 2.0 mph SE3.2 kmh SE -- 29.98 in1015.2 mb 0.09 in2.3 mm 0.12 in3.0 mm 0.18 in4.6 mm
05:00 PM 71.8°F22.1°C 68.3°F20.2°C 89% 1.0 mph S1.6 kmh S -- 29.98 in1015.2 mb 0.09 in2.3 mm 0.00 in0.0 mm 0.18 in4.6 mm
05:05 PM 71.6°F22.0°C 68.2°F20.1°C 89% 1.0 mph ESE1.6 kmh ESE -- 29.99 in1015.6 mb 0.09 in2.3 mm 0.00 in0.0 mm 0.19 in4.8 mm
05:10 PM 71.2°F21.8°C 68.1°F20.1°C 90% 6.0 mph SSE9.7 kmh SSE -- 29.98 in1015.2 mb 0.09 in2.3 mm 0.00 in0.0 mm 0.19 in4.8 mm
05:15 PM 71.8°F22.1°C 68.7°F20.4°C 90% 4.0 mph ESE6.4 kmh ESE -- 29.98 in1015.2 mb 0.09 in2.3 mm 0.00 in0.0 mm 0.20 in5.1 mm
05:20 PM 71.4°F21.9°C 68.3°F20.2°C 90% 3.0 mph SW4.8 kmh SW -- 29.98 in1015.2 mb 0.11 in2.8 mm 0.24 in6.1 mm 0.22 in5.6 mm
05:25 PM 71.4°F21.9°C 68.3°F20.2°C 90% 4.0 mph ENE6.4 kmh ENE -- 29.99 in1015.6 mb 0.09 in2.3 mm 0.00 in0.0 mm 0.23 in5.8 mm
05:30 PM 71.2°F21.8°C 68.1°F20.1°C 90% 6.0 mph W9.7 kmh W -- 30.00 in1015.9 mb 0.11 in2.8 mm 0.24 in6.1 mm 0.25 in6.4 mm
05:35 PM 71.2°F21.8°C 68.1°F20.1°C 90% 3.0 mph W4.8 kmh W -- 30.00 in1015.9 mb 0.14 in3.6 mm 0.36 in9.1 mm 0.30 in7.6 mm
05:45 PM 71.6°F22.0°C 68.5°F20.3°C 90% 2.0 mph SW3.2 kmh SW -- 30.00 in1015.9 mb 0.26 in6.6 mm 0.72 in18.3 mm 0.43 in10.9 mm
05:50 PM 72.1°F22.3°C 69.0°F20.6°C 90% Calm Calm -- 29.99 in1015.6 mb 0.26 in6.6 mm 0.00 in0.0 mm 0.43 in10.9 mm
05:55 PM 72.0°F22.2°C 68.5°F20.3°C 89% 2.0 mph WSW3.2 kmh WSW -- 29.99 in1015.6 mb 0.24 in6.1 mm 0.00 in0.0 mm 0.43 in10.9 mm
06:00 PM 71.8°F22.1°C 68.3°F20.2°C 89% 1.0 mph SW1.6 kmh SW -- 30.00 in1015.9 mb 0.24 in6.1 mm 0.00 in0.0 mm 0.43 in10.9 mm
06:05 PM 71.8°F22.1°C 68.3°F20.2°C 89% 1.0 mph W1.6 kmh W -- 30.00 in1015.9 mb 0.25 in6.4 mm 0.12 in3.0 mm 0.44 in11.2 mm
06:10 PM 72.0°F22.2°C 68.5°F20.3°C 89% Calm Calm -- 30.01 in1016.3 mb 0.26 in6.6 mm 0.12 in3.0 mm 0.45 in11.4 mm
06:15 PM 72.3°F22.4°C 68.9°F20.5°C 89% Calm Calm -- 30.01 in1016.3 mb 0.22 in5.6 mm 0.00 in0.0 mm 0.45 in11.4 mm
06:20 PM 71.6°F22.0°C 68.2°F20.1°C 89% 3.0 mph ESE4.8 kmh ESE -- 30.01 in1016.3 mb 0.23 in5.8 mm 0.12 in3.0 mm 0.46 in11.7 mm
06:25 PM 72.0°F22.2°C 68.5°F20.3°C 89% 5.0 mph SSW8.0 kmh SSW -- 30.00 in1015.9 mb 0.20 in5.1 mm 0.00 in0.0 mm 0.47 in11.9 mm
06:30 PM 71.6°F22.0°C 68.5°F20.3°C 90% 4.0 mph SSE6.4 kmh SSE -- 30.01 in1016.3 mb 0.21 in5.3 mm 0.12 in3.0 mm 0.48 in12.2 mm
06:35 PM 71.4°F21.9°C 68.3°F20.2°C 90% 1.0 mph NW1.6 kmh NW -- 30.02 in1016.6 mb 0.06 in1.5 mm 0.00 in0.0 mm 0.49 in12.4 mm
06:45 PM 71.2°F21.8°C 68.1°F20.1°C 90% Calm Calm -- 30.02 in1016.6 mb 0.06 in1.5 mm 0.00 in0.0 mm 0.49 in12.4 mm
06:55 PM 71.4°F21.9°C 68.3°F20.2°C 90% Calm Calm -- 30.02 in1016.6 mb 0.06 in1.5 mm 0.00 in0.0 mm 0.50 in12.7 mm
07:00 PM 71.1°F21.7°C 67.6°F19.8°C 89% 4.0 mph S6.4 kmh S -- 30.02 in1016.6 mb 0.06 in1.5 mm 0.00 in0.0 mm 0.50 in12.7 mm
07:05 PM 70.9°F21.6°C 67.8°F19.9°C 90% 4.0 mph S6.4 kmh S -- 30.02 in1016.6 mb 0.05 in1.3 mm 0.00 in0.0 mm 0.50 in12.7 mm
07:15 PM 70.3°F21.3°C 66.9°F19.4°C 89% 3.0 mph E4.8 kmh E -- 30.02 in1016.6 mb 0.05 in1.3 mm 0.00 in0.0 mm 0.51 in13.0 mm
07:20 PM 70.2°F21.2°C 66.7°F19.3°C 89% 2.0 mph WSW3.2 kmh WSW -- 30.03 in1016.9 mb 0.05 in1.3 mm 0.00 in0.0 mm 0.51 in13.0 mm
07:25 PM 70.2°F21.2°C 66.7°F19.3°C 89% 1.0 mph SW1.6 kmh SW -- 30.02 in1016.6 mb 0.02 in0.5 mm 0.00 in0.0 mm 0.51 in13.0 mm
07:30 PM 70.2°F21.2°C 66.7°F19.3°C 89% 2.0 mph W3.2 kmh W -- 30.02 in1016.6 mb 0.02 in0.5 mm 0.00 in0.0 mm 0.51 in13.0 mm
07:35 PM 70.5°F21.4°C 66.8°F19.3°C 88% Calm Calm -- 30.02 in1016.6 mb 0.02 in0.5 mm 0.00 in0.0 mm 0.51 in13.0 mm
07:40 PM 70.3°F21.3°C 66.6°F19.2°C 88% Calm Calm -- 30.03 in1016.9 mb 0.02 in0.5 mm 0.00 in0.0 mm 0.51 in13.0 mm
07:45 PM 70.3°F21.3°C 66.6°F19.2°C 88% Calm Calm -- 30.03 in1016.9 mb 0.01 in0.3 mm 0.00 in0.0 mm 0.51 in13.0 mm
07:50 PM 70.7°F21.5°C 67.0°F19.4°C 88% Calm Calm -- 30.03 in1016.9 mb 0.01 in0.3 mm 0.00 in0.0 mm 0.51 in13.0 mm
07:55 PM 70.2°F21.2°C 66.4°F19.1°C 88% Calm Calm -- 30.04 in1017.3 mb 0.01 in0.3 mm 0.00 in0.0 mm 0.51 in13.0 mm
08:00 PM 70.0°F21.1°C 66.2°F19.0°C 88% Calm Calm -- 30.04 in1017.3 mb 0.02 in0.5 mm 0.01 in0.3 mm 0.52 in13.2 mm
08:05 PM 69.8°F21.0°C 66.4°F19.1°C 89% Calm Calm -- 30.05 in1017.6 mb 0.01 in0.3 mm 0.00 in0.0 mm 0.52 in13.2 mm
08:10 PM 70.0°F21.1°C 66.6°F19.2°C 89% 1.0 mph WSW1.6 kmh WSW -- 30.05 in1017.6 mb 0.01 in0.3 mm 0.00 in0.0 mm 0.52 in13.2 mm
08:15 PM 69.6°F20.9°C 66.2°F19.0°C 89% Calm Calm -- 30.06 in1017.9 mb 0.01 in0.3 mm 0.00 in0.0 mm 0.52 in13.2 mm
08:20 PM 69.3°F20.7°C 65.9°F18.8°C 89% 1.0 mph W1.6 kmh W -- 30.06 in1017.9 mb 0.01 in0.3 mm 0.00 in0.0 mm 0.52 in13.2 mm
08:25 PM 69.4°F20.8°C 66.0°F18.9°C 89% 1.0 mph W1.6 kmh W -- 30.07 in1018.3 mb 0.02 in0.5 mm 0.12 in3.0 mm 0.53 in13.5 mm
08:30 PM 69.3°F20.7°C 65.9°F18.8°C 89% Calm Calm -- 30.07 in1018.3 mb 0.02 in0.5 mm 0.00 in0.0 mm 0.53 in13.5 mm
08:35 PM 69.4°F20.8°C 66.0°F18.9°C 89% 2.0 mph W3.2 kmh W -- 30.07 in1018.3 mb 0.02 in0.5 mm 0.00 in0.0 mm 0.53 in13.5 mm
08:40 PM 69.6°F20.9°C 66.2°F19.0°C 89% Calm Calm -- 30.07 in1018.3 mb 0.03 in0.8 mm 0.12 in3.0 mm 0.54 in13.7 mm
08:45 PM 68.9°F20.5°C 65.5°F18.6°C 89% 2.0 mph SW3.2 kmh SW -- 30.07 in1018.3 mb 0.03 in0.8 mm 0.00 in0.0 mm 0.54 in13.7 mm
08:50 PM 68.4°F20.2°C 65.0°F18.3°C 89% 3.0 mph W4.8 kmh W -- 30.06 in1017.9 mb 0.03 in0.8 mm 0.00 in0.0 mm 0.54 in13.7 mm
08:55 PM 68.2°F20.1°C 64.8°F18.2°C 89% 2.0 mph NW3.2 kmh NW -- 30.06 in1017.9 mb 0.02 in0.5 mm 0.00 in0.0 mm 0.54 in13.7 mm
09:00 PM 68.2°F20.1°C 64.8°F18.2°C 89% 2.0 mph W3.2 kmh W -- 30.06 in1017.9 mb 0.02 in0.5 mm 0.00 in0.0 mm 0.54 in13.7 mm
09:05 PM 68.2°F20.1°C 64.8°F18.2°C 89% 2.0 mph WNW3.2 kmh WNW -- 30.06 in1017.9 mb 0.03 in0.8 mm 0.12 in3.0 mm 0.55 in14.0 mm
09:10 PM 68.4°F20.2°C 65.0°F18.3°C 89% 1.0 mph W1.6 kmh W -- 30.06 in1017.9 mb 0.03 in0.8 mm 0.00 in0.0 mm 0.55 in14.0 mm
09:15 PM 68.0°F20.0°C 64.6°F18.1°C 89% Calm Calm -- 30.06 in1017.9 mb 0.02 in0.5 mm 0.00 in0.0 mm 0.55 in14.0 mm
09:20 PM 68.0°F20.0°C 64.6°F18.1°C 89% 1.0 mph W1.6 kmh W -- 30.07 in1018.3 mb 0.02 in0.5 mm 0.00 in0.0 mm 0.55 in14.0 mm
09:25 PM 68.0°F20.0°C 64.6°F18.1°C 89% 1.0 mph NNW1.6 kmh NNW -- 30.07 in1018.3 mb 0.02 in0.5 mm 0.00 in0.0 mm 0.55 in14.0 mm
09:30 PM 68.2°F20.1°C 64.8°F18.2°C 89% 2.0 mph WSW3.2 kmh WSW -- 30.07 in1018.3 mb 0.02 in0.5 mm 0.00 in0.0 mm 0.55 in14.0 mm
09:35 PM 67.8°F19.9°C 64.4°F18.0°C 89% Calm Calm -- 30.06 in1017.9 mb 0.01 in0.3 mm 0.00 in0.0 mm 0.55 in14.0 mm
09:40 PM 67.6°F19.8°C 64.3°F17.9°C 89% 2.0 mph W3.2 kmh W -- 30.06 in1017.9 mb 0.01 in0.3 mm 0.00 in0.0 mm 0.55 in14.0 mm
09:45 PM 67.3°F19.6°C 63.9°F17.7°C 89% 4.0 mph S6.4 kmh S -- 30.05 in1017.6 mb 0.01 in0.3 mm 0.00 in0.0 mm 0.55 in14.0 mm
09:50 PM 67.3°F19.6°C 64.2°F17.9°C 90% 3.0 mph WSW4.8 kmh WSW -- 30.05 in1017.6 mb 0.01 in0.3 mm 0.00 in0.0 mm 0.55 in14.0 mm
09:55 PM 67.5°F19.7°C 64.4°F18.0°C 90% 1.0 mph E1.6 kmh E -- 30.05 in1017.6 mb 0.01 in0.3 mm 0.00 in0.0 mm 0.55 in14.0 mm
10:00 PM 67.5°F19.7°C 64.1°F17.8°C 89% 1.0 mph SSE1.6 kmh SSE -- 30.04 in1017.3 mb 0.01 in0.3 mm 0.00 in0.0 mm 0.55 in14.0 mm
10:05 PM 67.6°F19.8°C 64.3°F17.9°C 89% Calm Calm -- 30.03 in1016.9 mb 0.00 in0.0 mm 0.00 in0.0 mm 0.55 in14.0 mm
10:10 PM 67.1°F19.5°C 63.7°F17.6°C 89% 4.0 mph SSE6.4 kmh SSE -- 30.04 in1017.3 mb 0.00 in0.0 mm 0.00 in0.0 mm 0.55 in14.0 mm
10:15 PM 66.7°F19.3°C 63.4°F17.4°C 89% 1.0 mph ESE1.6 kmh ESE -- 30.04 in1017.3 mb 0.00 in0.0 mm 0.00 in0.0 mm 0.55 in14.0 mm
10:20 PM 66.9°F19.4°C 63.6°F17.6°C 89% 2.0 mph SSE3.2 kmh SSE -- 30.03 in1016.9 mb 0.00 in0.0 mm 0.00 in0.0 mm 0.55 in14.0 mm
10:25 PM 66.6°F19.2°C 63.2°F17.3°C 89% 1.0 mph NNW1.6 kmh NNW -- 30.03 in1016.9 mb 0.00 in0.0 mm 0.00 in0.0 mm 0.55 in14.0 mm
10:30 PM 66.6°F19.2°C 63.2°F17.3°C 89% 2.0 mph SSE3.2 kmh SSE -- 30.03 in1016.9 mb 0.00 in0.0 mm 0.00 in0.0 mm 0.55 in14.0 mm
10:35 PM 66.4°F19.1°C 63.0°F17.2°C 89% 4.0 mph SE6.4 kmh SE -- 30.03 in1016.9 mb 0.01 in0.3 mm 0.12 in3.0 mm 0.56 in14.2 mm
10:40 PM 66.7°F19.3°C 63.4°F17.4°C 89% Calm Calm -- 30.03 in1016.9 mb 0.01 in0.3 mm 0.00 in0.0 mm 0.56 in14.2 mm
10:45 PM 66.7°F19.3°C 63.4°F17.4°C 89% Calm Calm -- 30.03 in1016.9 mb 0.01 in0.3 mm 0.00 in0.0 mm 0.56 in14.2 mm
10:50 PM 66.6°F19.2°C 63.2°F17.3°C 89% 2.0 mph NW3.2 kmh NW -- 30.03 in1016.9 mb 0.01 in0.3 mm 0.00 in0.0 mm 0.56 in14.2 mm
10:55 PM 66.4°F19.1°C 63.0°F17.2°C 89% Calm Calm -- 30.03 in1016.9 mb 0.01 in0.3 mm 0.00 in0.0 mm 0.56 in14.2 mm
11:00 PM 66.7°F19.3°C 63.4°F17.4°C 89% 1.0 mph SW1.6 kmh SW -- 30.02 in1016.6 mb 0.01 in0.3 mm 0.00 in0.0 mm 0.56 in14.2 mm
11:05 PM 66.7°F19.3°C 63.4°F17.4°C 89% Calm Calm -- 30.02 in1016.6 mb 0.01 in0.3 mm 0.00 in0.0 mm 0.56 in14.2 mm
11:10 PM 66.7°F19.3°C 63.4°F17.4°C 89% Calm Calm -- 30.03 in1016.9 mb 0.01 in0.3 mm 0.00 in0.0 mm 0.56 in14.2 mm
11:15 PM 67.5°F19.7°C 64.1°F17.8°C 89% Calm Calm -- 30.03 in1016.9 mb 0.01 in0.3 mm 0.00 in0.0 mm 0.56 in14.2 mm
11:20 PM 67.3°F19.6°C 63.9°F17.7°C 89% Calm Calm -- 30.03 in1016.9 mb 0.01 in0.3 mm 0.00 in0.0 mm 0.56 in14.2 mm
11:25 PM 67.3°F19.6°C 63.9°F17.7°C 89% Calm Calm -- 30.03 in1016.9 mb 0.00 in0.0 mm 0.00 in0.0 mm 0.56 in14.2 mm
11:30 PM 67.3°F19.6°C 63.9°F17.7°C 89% Calm Calm -- 30.03 in1016.9 mb 0.00 in0.0 mm 0.00 in0.0 mm 0.56 in14.2 mm
11:35 PM 67.3°F19.6°C 63.9°F17.7°C 89% Calm Calm -- 30.02 in1016.6 mb 0.00 in0.0 mm 0.00 in0.0 mm 0.56 in14.2 mm
11:40 PM 67.3°F19.6°C 63.6°F17.6°C 88% Calm Calm -- 30.02 in1016.6 mb 0.00 in0.0 mm 0.00 in0.0 mm 0.56 in14.2 mm
11:45 PM 66.9°F19.4°C 63.6°F17.6°C 89% 1.0 mph ESE1.6 kmh ESE -- 30.02 in1016.6 mb 0.00 in0.0 mm 0.00 in0.0 mm 0.56 in14.2 mm
11:50 PM 66.4°F19.1°C 63.3°F17.4°C 90% 2.0 mph S3.2 kmh S -- 30.02 in1016.6 mb 0.00 in0.0 mm 0.00 in0.0 mm 0.56 in14.2 mm
11:55 PM 66.6°F19.2°C 63.5°F17.5°C 90% 1.0 mph S1.6 kmh S -- 30.02 in1016.6 mb 0.00 in0.0 mm 0.00 in0.0 mm 0.56 in14.2 mm